Time;durP1;ratioP1;P1;durP2;ratioP2;P2;SDS_P1;SDS_P2;PMS_P1;PMS_P2;Temp;Humidity;BMP_temperature;BMP_pressure;BME280_temperature;BME280_humidity;BME280_pressure;Samples;Min_cycle;Max_cycle;Signal;HPM_P1;HPM_P2
2022/07/12 00:00:12;;;;;;;2.38;1.10;;;25.10;87.60;;;;;;5114054;28;20510;-75
2022/07/12 00:02:38;;;;;;;2.65;1.08;;;25.10;88.40;;;;;;5095487;28;20043;-75
2022/07/12 00:05:05;;;;;;;1.20;1.10;;;25.00;89.40;;;;;;5113890;28;20517;-74
2022/07/12 00:07:31;;;;;;;1.60;0.95;;;25.00;89.60;;;;;;5114256;28;20027;-74
2022/07/12 00:09:56;;;;;;;2.05;1.30;;;25.00;90.00;;;;;;5114189;28;20027;-74
2022/07/12 00:12:22;;;;;;;1.20;1.20;;;24.90;90.60;;;;;;5113823;28;20452;-74
2022/07/12 00:14:49;;;;;;;2.83;0.95;;;24.90;91.00;;;;;;5113869;28;20429;-75
2022/07/12 00:17:14;;;;;;;1.77;1.23;;;24.80;91.30;;;;;;5113906;28;20031;-74
2022/07/12 00:19:40;;;;;;;1.30;1.20;;;24.70;91.40;;;;;;5113854;28;20027;-74
2022/07/12 00:22:28;;;;;;;1.55;0.90;;;24.70;91.50;;;;;;5113525;28;20474;-75
2022/07/12 00:24:54;;;;;;;3.33;1.67;;;24.60;91.70;;;;;;5113578;28;20032;-74
2022/07/12 00:27:20;;;;;;;4.10;1.20;;;24.40;92.20;;;;;;5113670;28;20031;-74
2022/07/12 00:29:48;;;;;;;2.17;1.20;;;24.30;92.70;;;;;;5095457;28;20020;-74
2022/07/12 00:32:14;;;;;;;1.40;1.30;;;24.20;93.00;;;;;;5113616;28;20070;-75
2022/07/12 00:34:40;;;;;;;1.40;1.33;;;24.20;93.10;;;;;;5113446;28;20486;-74
2022/07/12 00:37:06;;;;;;;2.15;1.38;;;24.20;93.10;;;;;;5113648;28;20581;-74
2022/07/12 00:39:31;;;;;;;3.70;1.30;;;24.20;93.30;;;;;;5095323;28;20356;-74
2022/07/12 00:41:57;;;;;;;1.30;1.30;;;24.10;93.40;;;;;;5113465;28;20024;-74
2022/07/12 00:44:23;;;;;;;1.45;1.10;;;24.10;93.50;;;;;;5095182;28;20114;-74
2022/07/12 00:46:49;;;;;;;1.40;1.30;;;24.10;93.60;;;;;;5113504;28;20023;-74
2022/07/12 00:49:15;;;;;;;1.63;1.40;;;24.10;93.70;;;;;;5113394;28;20379;-74
2022/07/12 00:51:44;;;;;;;1.65;1.30;;;24.00;93.80;;;;;;5095135;28;20497;-74
2022/07/12 00:54:10;;;;;;;1.30;1.20;;;23.90;93.90;;;;;;5095170;28;20487;-74
2022/07/12 00:56:37;;;;;;;1.65;1.17;;;23.90;94.10;;;;;;5095164;28;20019;-74
2022/07/12 00:59:03;;;;;;;6.68;1.50;;;23.90;94.20;;;;;;5113242;28;20132;-74
2022/07/12 01:01:29;;;;;;;1.95;1.15;;;23.90;94.20;;;;;;5113326;28;20027;-74
2022/07/12 01:03:56;;;;;;;2.50;1.63;;;23.90;94.30;;;;;;5113397;28;20047;-74
2022/07/12 01:06:22;;;;;;;3.50;1.48;;;23.90;94.50;;;;;;5117223;28;20028;-74
2022/07/12 01:08:48;;;;;;;1.45;1.35;;;23.90;94.40;;;;;;5117172;28;20028;-74
2022/07/12 01:11:15;;;;;;;1.40;1.30;;;24.00;94.40;;;;;;5098938;28;20019;-74
2022/07/12 01:13:42;;;;;;;1.10;1.10;;;24.10;94.30;;;;;;5117105;28;20012;-74
2022/07/12 01:16:09;;;;;;;3.53;1.30;;;24.00;94.50;;;;;;5117220;28;20107;-74
2022/07/12 01:18:35;;;;;;;1.45;1.20;;;23.90;94.60;;;;;;5098825;28;20136;-74
2022/07/12 01:21:06;;;;;;;3.25;1.63;;;23.90;94.80;;;;;;5116933;28;20111;-74
2022/07/12 01:23:34;;;;;;;1.23;1.13;;;23.90;94.70;;;;;;5117112;28;20023;-74
2022/07/12 01:26:00;;;;;;;1.20;1.20;;;24.00;94.60;;;;;;5116965;28;20036;-74
2022/07/12 01:28:25;;;;;;;1.67;1.58;;;24.10;94.60;;;;;;5098426;28;20023;-75
2022/07/12 01:30:51;;;;;;;1.42;1.30;;;24.00;94.70;;;;;;5098512;28;20027;-74
2022/07/12 01:33:18;;;;;;;1.30;1.30;;;24.00;94.70;;;;;;5116937;28;20023;-74
2022/07/12 01:35:45;;;;;;;6.75;1.75;;;24.10;94.80;;;;;;5098415;28;20020;-74
2022/07/12 01:38:11;;;;;;;1.60;1.50;;;24.00;94.70;;;;;;5116681;28;20123;-75
2022/07/12 01:40:37;;;;;;;2.05;1.33;;;24.00;94.70;;;;;;5116871;28;20490;-74
2022/07/12 01:43:03;;;;;;;1.48;1.38;;;24.00;94.90;;;;;;5116648;28;20030;-74
2022/07/12 01:45:28;;;;;;;1.30;1.30;;;24.10;94.80;;;;;;5116648;28;20081;-74
2022/07/12 01:47:58;;;;;;;2.15;1.23;;;24.00;94.80;;;;;;5116571;28;21247;-74
2022/07/12 01:50:24;;;;;;;1.85;1.75;;;24.10;94.80;;;;;;5116645;28;20023;-74
2022/07/12 01:52:51;;;;;;;1.50;1.40;;;24.10;94.90;;;;;;5116533;28;20026;-74
2022/07/12 01:55:18;;;;;;;3.00;1.60;;;24.10;94.80;;;;;;5116549;28;20027;-75
2022/07/12 01:57:44;;;;;;;1.35;1.27;;;24.20;94.80;;;;;;5116309;28;20490;-75
2022/07/12 02:00:13;;;;;;;1.30;1.30;;;24.20;94.90;;;;;;5116237;28;20023;-74
2022/07/12 02:02:39;;;;;;;1.70;1.60;;;24.10;94.90;;;;;;5116271;28;20039;-74
2022/07/12 02:05:05;;;;;;;1.80;1.70;;;24.10;95.00;;;;;;5116249;28;20054;-74
2022/07/12 02:07:32;;;;;;;2.03;1.90;;;24.10;95.20;;;;;;5116047;28;20462;-74
2022/07/12 02:10:01;;;;;;;1.83;1.73;;;24.10;95.30;;;;;;5116386;28;20406;-75
2022/07/12 02:12:27;;;;;;;4.43;1.65;;;24.10;95.40;;;;;;5116144;28;20102;-74
2022/07/12 02:14:52;;;;;;;1.52;1.42;;;24.10;95.40;;;;;;5097577;28;20098;-74
2022/07/12 02:17:18;;;;;;;1.90;1.67;;;24.10;95.50;;;;;;5116023;28;20019;-74
2022/07/12 02:19:44;;;;;;;1.67;1.58;;;24.10;95.60;;;;;;5097657;28;20057;-74
2022/07/12 02:22:10;;;;;;;2.42;1.70;;;24.20;95.60;;;;;;5115988;28;20028;-74
2022/07/12 02:24:36;;;;;;;1.58;1.48;;;24.20;95.60;;;;;;5115939;28;20088;-74
2022/07/12 02:27:02;;;;;;;2.40;1.85;;;24.20;95.60;;;;;;5115824;28;20027;-74
2022/07/12 02:29:27;;;;;;;1.42;1.42;;;24.20;95.60;;;;;;5115711;28;20063;-75
2022/07/12 02:31:53;;;;;;;1.95;1.77;;;24.30;96.00;;;;;;5115534;28;20042;-74
2022/07/12 02:34:19;;;;;;;2.30;2.08;;;24.30;95.60;;;;;;5097339;28;20049;-75
2022/07/12 02:36:45;;;;;;;7.45;1.65;;;24.40;95.40;;;;;;5097380;28;20012;-74
2022/07/12 02:39:11;;;;;;;3.30;1.60;;;24.40;95.30;;;;;;5097205;28;20031;-75
2022/07/12 02:41:37;;;;;;;5.05;1.75;;;24.40;95.30;;;;;;5115461;28;20026;-74
2022/07/12 02:44:03;;;;;;;3.15;1.58;;;24.40;95.30;;;;;;5115674;28;20020;-74
2022/07/12 02:46:28;;;;;;;3.88;1.73;;;24.40;95.50;;;;;;5115469;28;20027;-74
2022/07/12 02:48:54;;;;;;;1.75;1.65;;;24.40;95.70;;;;;;5115315;28;20387;-74
2022/07/12 02:51:20;;;;;;;2.25;1.77;;;24.40;95.60;;;;;;5115380;28;20023;-75
2022/07/12 02:53:46;;;;;;;1.92;1.83;;;24.40;95.50;;;;;;5115270;28;20106;-74
2022/07/12 02:56:11;;;;;;;1.75;1.50;;;24.40;95.60;;;;;;5115279;28;20018;-74
2022/07/12 02:58:38;;;;;;;1.95;1.85;;;24.40;95.60;;;;;;5097041;28;20512;-74
2022/07/12 03:01:04;;;;;;;1.77;1.65;;;24.50;95.60;;;;;;5115159;28;20506;-75
2022/07/12 03:03:30;;;;;;;1.60;1.50;;;24.50;95.60;;;;;;5114763;28;20080;-74
2022/07/12 03:05:56;;;;;;;1.90;1.73;;;24.50;95.60;;;;;;5115096;28;20031;-74
2022/07/12 03:08:22;;;;;;;2.00;1.90;;;24.50;95.80;;;;;;5096811;28;20032;-74
2022/07/12 03:10:48;;;;;;;4.68;1.90;;;24.40;95.90;;;;;;5115154;28;20100;-74
2022/07/12 03:13:14;;;;;;;1.85;1.75;;;24.40;96.00;;;;;;5114797;28;20030;-74
2022/07/12 03:15:39;;;;;;;2.20;2.00;;;24.30;96.10;;;;;;5115106;28;20069;-75
2022/07/12 03:18:05;;;;;;;1.52;1.52;;;24.30;96.30;;;;;;5114933;28;20102;-75
2022/07/12 03:20:31;;;;;;;1.65;1.55;;;24.30;96.30;;;;;;5096385;28;20023;-74
2022/07/12 03:22:57;;;;;;;2.03;1.83;;;24.30;96.20;;;;;;5114751;28;20035;-75
2022/07/12 03:25:24;;;;;;;2.85;2.03;;;24.40;96.30;;;;;;5114664;28;20076;-75
2022/07/12 03:27:50;;;;;;;2.33;2.13;;;24.30;96.40;;;;;;5113989;28;20096;-75
2022/07/12 03:30:16;;;;;;;2.90;2.00;;;24.40;96.40;;;;;;5096280;28;20019;-75
2022/07/12 03:32:42;;;;;;;3.00;2.00;;;24.40;96.30;;;;;;5114577;28;20023;-74
2022/07/12 03:35:08;;;;;;;2.05;1.85;;;24.40;96.20;;;;;;5096404;28;20031;-74
2022/07/12 03:37:47;;;;;;;2.17;1.92;;;24.40;96.20;;;;;;5114475;28;20408;-75
2022/07/12 03:40:14;;;;;;;2.05;1.92;;;24.50;96.30;;;;;;5114418;28;20030;-74
2022/07/12 03:42:41;;;;;;;2.45;2.00;;;24.50;96.20;;;;;;5095960;28;20114;-74
2022/07/12 03:45:07;;;;;;;1.55;1.55;;;24.60;96.00;;;;;;5114471;28;20450;-74
2022/07/12 03:47:34;;;;;;;3.80;2.13;;;24.50;96.20;;;;;;5114255;28;20069;-74
2022/07/12 03:50:02;;;;;;;2.00;1.90;;;24.60;96.20;;;;;;5096016;28;20020;-74
2022/07/12 03:52:28;;;;;;;1.98;1.88;;;24.50;96.20;;;;;;5095931;28;20024;-75
2022/07/12 03:54:54;;;;;;;2.20;1.90;;;24.50;96.50;;;;;;5114247;28;20106;-74
2022/07/12 03:57:19;;;;;;;2.33;2.08;;;24.40;96.60;;;;;;5114072;28;20024;-74
2022/07/12 03:59:45;;;;;;;2.22;1.80;;;24.40;96.70;;;;;;5095834;28;20482;-74
2022/07/12 04:02:12;;;;;;;2.22;2.08;;;24.40;96.60;;;;;;5095626;28;20039;-74
2022/07/12 04:04:38;;;;;;;1.70;1.60;;;24.40;96.70;;;;;;5114136;28;20035;-74
2022/07/12 04:07:04;;;;;;;2.33;2.13;;;24.40;96.80;;;;;;5113895;28;20390;-75
2022/07/12 04:09:31;;;;;;;2.50;2.30;;;24.40;96.90;;;;;;5113894;28;20551;-74
2022/07/12 04:11:57;;;;;;;1.83;1.73;;;24.40;96.80;;;;;;5113923;28;20020;-74
2022/07/12 04:14:23;;;;;;;3.80;2.10;;;24.40;97.00;;;;;;5095651;28;20059;-74
2022/07/12 04:16:48;;;;;;;2.13;2.03;;;24.40;97.30;;;;;;5095483;28;20051;-74
2022/07/12 04:19:14;;;;;;;1.92;1.70;;;24.40;97.30;;;;;;5113702;28;20048;-74
2022/07/12 04:21:40;;;;;;;3.20;2.20;;;24.40;97.50;;;;;;5113619;28;20046;-74
2022/07/12 04:24:06;;;;;;;2.53;2.00;;;24.40;97.40;;;;;;5095392;28;20031;-74
2022/07/12 04:26:32;;;;;;;2.03;1.90;;;24.30;97.30;;;;;;5114014;28;20023;-74
2022/07/12 04:29:01;;;;;;;7.22;2.10;;;24.30;97.40;;;;;;5113560;28;20019;-74
2022/07/12 04:31:26;;;;;;;1.73;1.63;;;24.30;97.40;;;;;;5113535;28;20022;-75
2022/07/12 04:33:52;;;;;;;4.45;1.70;;;24.30;97.40;;;;;;5113621;28;20023;-75
2022/07/12 04:36:18;;;;;;;1.77;1.67;;;24.30;97.30;;;;;;5113805;28;20019;-74
2022/07/12 04:38:44;;;;;;;2.22;1.58;;;24.20;97.40;;;;;;5095208;28;20031;-74
2022/07/12 04:41:09;;;;;;;2.53;2.00;;;24.20;97.60;;;;;;5117955;28;20110;-74
2022/07/12 04:43:35;;;;;;;2.35;2.15;;;24.20;97.70;;;;;;5099677;28;20501;-74
2022/07/12 04:46:08;;;;;;;2.10;1.90;;;24.20;97.70;;;;;;5099491;28;20020;-75
2022/07/12 04:48:34;;;;;;;2.75;1.80;;;24.20;97.60;;;;;;5099222;28;20035;-74
2022/07/12 04:51:00;;;;;;;2.60;1.98;;;24.20;97.70;;;;;;5099363;28;20019;-74
2022/07/12 04:53:27;;;;;;;2.05;1.95;;;24.20;97.80;;;;;;5117590;28;20028;-75
2022/07/12 04:55:55;;;;;;;2.35;2.15;;;24.20;97.90;;;;;;5099197;28;20111;-74
2022/07/12 04:58:21;;;;;;;2.35;2.15;;;24.20;97.70;;;;;;5099195;28;20038;-74
2022/07/12 05:00:47;;;;;;;2.97;2.35;;;24.20;97.80;;;;;;5117526;28;20023;-74
2022/07/12 05:03:12;;;;;;;2.78;2.20;;;24.20;97.80;;;;;;5099019;28;20058;-74
2022/07/12 05:05:44;;;;;;;1.90;1.80;;;24.20;97.70;;;;;;5117393;28;20034;-74
2022/07/12 05:08:10;;;;;;;2.25;2.05;;;24.30;97.70;;;;;;5117389;28;20031;-75
2022/07/12 05:10:36;;;;;;;2.10;2.00;;;24.40;97.90;;;;;;5117354;28;20012;-75
2022/07/12 05:13:02;;;;;;;2.30;2.10;;;24.40;97.50;;;;;;5117281;28;20370;-75
2022/07/12 05:15:28;;;;;;;5.65;2.20;;;24.50;97.40;;;;;;5117140;28;20391;-75
2022/07/12 05:17:53;;;;;;;3.72;2.28;;;24.60;97.30;;;;;;5098681;28;20024;-75
2022/07/12 05:20:19;;;;;;;2.63;2.42;;;24.60;97.10;;;;;;5117305;28;20020;-74
2022/07/12 05:22:45;;;;;;;2.38;2.17;;;24.60;97.00;;;;;;5117234;28;20028;-74
2022/07/12 05:25:15;;;;;;;3.25;1.90;;;24.70;97.20;;;;;;5116937;28;20026;-75
2022/07/12 05:27:41;;;;;;;2.50;2.33;;;24.80;97.70;;;;;;5116979;28;20027;-75
2022/07/12 05:30:07;;;;;;;1.92;1.80;;;24.90;97.10;;;;;;5116860;28;20024;-75
2022/07/12 05:32:33;;;;;;;5.93;2.22;;;25.00;97.00;;;;;;5098443;28;20020;-75
2022/07/12 05:34:59;;;;;;;7.82;2.40;;;25.00;96.20;;;;;;5116962;28;20095;-75
2022/07/12 05:37:25;;;;;;;2.58;1.80;;;25.10;96.50;;;;;;5098508;28;20110;-75
2022/07/12 05:39:52;;;;;;;2.35;2.15;;;25.20;96.10;;;;;;5116628;28;20566;-75
2022/07/12 05:42:18;;;;;;;2.42;2.15;;;25.20;97.00;;;;;;5116725;28;20107;-75
2022/07/12 05:44:43;;;;;;;6.40;2.38;;;25.10;96.20;;;;;;5098362;28;20062;-75
2022/07/12 05:47:09;;;;;;;1.80;1.70;;;25.10;95.60;;;;;;5116751;28;20058;-75
2022/07/12 05:49:35;;;;;;;6.32;1.50;;;25.00;95.20;;;;;;5097942;28;20081;-75
2022/07/12 05:54:45;;;;;;;6.13;1.63;;;25.10;95.30;;;;;;5116481;28;20548;-75
2022/07/12 05:57:11;;;;;;;4.80;1.73;;;25.20;95.10;;;;;;5098003;28;20036;-75
2022/07/12 05:59:37;;;;;;;3.42;1.88;;;25.10;94.90;;;;;;5116613;28;20024;-75
2022/07/12 06:02:03;;;;;;;1.67;1.52;;;25.20;94.00;;;;;;5116143;28;20031;-75
2022/07/12 06:04:29;;;;;;;3.08;1.70;;;25.20;94.40;;;;;;5097969;28;20035;-75
2022/07/12 06:06:56;;;;;;;1.40;1.35;;;25.30;94.60;;;;;;5097960;28;20057;-75
2022/07/12 06:09:22;;;;;;;4.82;1.70;;;25.30;93.80;;;;;;5116407;28;20153;-75
2022/07/12 06:11:48;;;;;;;2.40;1.38;;;25.30;93.90;;;;;;5116037;28;20481;-75
2022/07/12 06:14:14;;;;;;;2.00;1.52;;;25.40;93.70;;;;;;5116288;28;20047;-75
2022/07/12 06:16:39;;;;;;;4.28;1.58;;;25.40;93.60;;;;;;5097695;28;20077;-75
2022/07/12 06:19:05;;;;;;;2.55;1.10;;;25.40;93.50;;;;;;5116062;28;20479;-75
2022/07/12 06:21:31;;;;;;;1.30;1.20;;;25.30;93.10;;;;;;5116013;28;20077;-75
2022/07/12 06:23:57;;;;;;;5.53;1.52;;;25.30;93.30;;;;;;5116139;28;20367;-75
2022/07/12 06:26:22;;;;;;;3.03;1.38;;;25.30;93.40;;;;;;5115804;28;20032;-75
2022/07/12 06:28:48;;;;;;;4.65;1.58;;;25.40;93.60;;;;;;5115687;28;20055;-75
2022/07/12 06:31:14;;;;;;;5.20;1.90;;;25.50;93.50;;;;;;5115893;28;20124;-75
2022/07/12 06:33:40;;;;;;;4.25;1.90;;;25.50;93.40;;;;;;5115673;28;20450;-74
2022/07/12 06:36:06;;;;;;;5.10;1.98;;;25.50;93.50;;;;;;5115686;28;20028;-75
2022/07/12 06:38:31;;;;;;;1.13;1.02;;;25.60;93.50;;;;;;5097385;28;20039;-75
2022/07/12 06:40:57;;;;;;;7.68;1.92;;;25.60;92.70;;;;;;5115388;28;20027;-75
2022/07/12 06:43:23;;;;;;;2.95;1.75;;;25.70;92.50;;;;;;5115632;28;20493;-75
2022/07/12 06:45:48;;;;;;;1.30;1.08;;;25.70;92.80;;;;;;5115481;28;20028;-75
2022/07/12 06:48:14;;;;;;;1.83;1.48;;;25.80;92.60;;;;;;5096923;28;20415;-75
2022/07/12 06:50:40;;;;;;;4.75;1.27;;;25.80;92.70;;;;;;5115451;28;20020;-75
2022/07/12 06:56:41;;;;;;;3.20;1.48;;;25.80;92.10;;;;;;5115871;28;20128;-75
2022/07/12 06:59:10;;;;;;;1.65;1.40;;;25.90;92.20;;;;;;5115235;28;20019;-75
2022/07/12 07:01:37;;;;;;;5.60;1.60;;;25.90;92.00;;;;;;5114548;28;20121;-75
2022/07/12 07:04:03;;;;;;;1.40;1.20;;;26.00;92.00;;;;;;5096276;28;20078;-75
2022/07/12 07:06:29;;;;;;;1.75;1.58;;;26.00;91.70;;;;;;5096740;28;20020;-75
2022/07/12 07:08:55;;;;;;;3.35;1.83;;;26.10;91.70;;;;;;5096564;28;20039;-75
2022/07/12 07:11:20;;;;;;;3.75;1.20;;;26.10;91.60;;;;;;5115089;28;20022;-75
2022/07/12 07:13:46;;;;;;;1.60;1.52;;;26.20;91.80;;;;;;5115048;28;20054;-75
2022/07/12 07:16:13;;;;;;;3.33;1.50;;;26.20;91.80;;;;;;5096570;28;20020;-75
2022/07/12 07:18:40;;;;;;;3.10;1.58;;;26.20;92.50;;;;;;5096601;28;20019;-75
2022/07/12 07:21:06;;;;;;;4.03;1.48;;;26.30;93.30;;;;;;5114990;28;20028;-75
2022/07/12 07:23:32;;;;;;;1.15;1.15;;;26.30;92.40;;;;;;5114878;28;20022;-75
2022/07/12 07:25:58;;;;;;;1.83;1.42;;;26.30;91.90;;;;;;5114597;28;20031;-76
2022/07/12 07:28:24;;;;;;;1.60;1.05;;;26.30;92.00;;;;;;5096220;28;20111;-75
2022/07/12 07:31:01;;;;;;;2.72;1.27;;;26.40;92.20;;;;;;5096252;28;20111;-75
2022/07/12 07:33:27;;;;;;;2.75;1.20;;;26.30;91.10;;;;;;5114554;28;20023;-75
2022/07/12 07:35:53;;;;;;;1.40;1.30;;;26.40;91.60;;;;;;5114393;28;20019;-76
2022/07/12 07:38:20;;;;;;;1.42;1.33;;;26.40;91.60;;;;;;5114690;28;20031;-75
2022/07/12 07:40:46;;;;;;;2.40;1.98;;;26.50;91.70;;;;;;5096163;28;20032;-75
2022/07/12 07:43:12;;;;;;;2.97;1.30;;;26.60;92.20;;;;;;5114396;28;20391;-75
2022/07/12 07:45:37;;;;;;;1.48;1.23;;;26.60;92.10;;;;;;5096014;28;20027;-75
2022/07/12 07:48:03;;;;;;;2.47;1.40;;;26.60;92.00;;;;;;5114313;28;20060;-75
2022/07/12 07:50:29;;;;;;;4.88;1.52;;;26.70;91.80;;;;;;5114483;28;20088;-75
2022/07/12 07:52:56;;;;;;;2.38;1.42;;;26.70;91.90;;;;;;5095900;28;20019;-75
2022/07/12 07:55:22;;;;;;;1.50;1.40;;;26.80;92.10;;;;;;5114008;28;20022;-75
2022/07/12 07:57:48;;;;;;;1.60;1.50;;;26.80;91.40;;;;;;5114277;28;20019;-75
2022/07/12 08:00:15;;;;;;;1.05;1.02;;;26.70;90.40;;;;;;5113969;28;20043;-75
2022/07/12 08:02:41;;;;;;;2.35;1.20;;;26.80;91.20;;;;;;5113800;28;20487;-75
2022/07/12 08:05:07;;;;;;;2.42;1.73;;;26.80;91.10;;;;;;5113961;28;20479;-75
2022/07/12 08:07:33;;;;;;;8.32;1.20;;;26.80;90.50;;;;;;5113927;28;20102;-75
2022/07/12 08:09:59;;;;;;;3.90;1.45;;;26.80;90.50;;;;;;5113959;28;20111;-76
2022/07/12 08:12:25;;;;;;;2.13;1.88;;;27.00;90.90;;;;;;5113880;28;20023;-77
2022/07/12 08:14:50;;;;;;;0.90;0.90;;;27.10;90.10;;;;;;5113617;28;20027;-76
2022/07/12 08:17:16;;;;;;;1.25;1.15;;;27.30;90.10;;;;;;5114011;28;20098;-76
2022/07/12 08:19:42;;;;;;;2.25;1.40;;;27.30;87.30;;;;;;5113837;28;20103;-76
2022/07/12 08:22:07;;;;;;;7.20;1.20;;;27.40;86.30;;;;;;5114078;28;20063;-76
2022/07/12 08:24:33;;;;;;;1.75;1.33;;;27.40;86.30;;;;;;5113727;28;20064;-76
2022/07/12 08:26:59;;;;;;;1.02;0.98;;;27.30;85.70;;;;;;5113811;28;20103;-76
2022/07/12 08:29:25;;;;;;;2.28;1.10;;;27.30;84.90;;;;;;5113442;28;20501;-76
2022/07/12 08:31:50;;;;;;;2.28;1.40;;;27.50;85.60;;;;;;5113590;28;20023;-76
2022/07/12 08:34:16;;;;;;;1.60;1.35;;;27.30;82.10;;;;;;5113967;28;20096;-76
2022/07/12 08:36:42;;;;;;;3.40;1.15;;;27.30;83.30;;;;;;5113636;28;20536;-76
2022/07/12 08:39:10;;;;;;;1.17;1.08;;;27.30;83.00;;;;;;5113590;28;20402;-76
2022/07/12 08:41:36;;;;;;;1.17;1.17;;;27.40;84.50;;;;;;5113525;28;20030;-76
2022/07/12 08:44:05;;;;;;;4.72;1.25;;;27.40;80.80;;;;;;5113676;28;20016;-76
2022/07/12 08:46:31;;;;;;;1.45;1.35;;;27.30;80.80;;;;;;5113491;28;20027;-76
2022/07/12 08:48:57;;;;;;;1.27;1.27;;;27.30;79.00;;;;;;5095115;28;20024;-76
2022/07/12 08:51:22;;;;;;;1.30;1.20;;;27.40;79.30;;;;;;5113644;28;20554;-76
2022/07/12 08:54:17;;;;;;;2.97;1.13;;;27.40;78.20;;;;;;5095154;28;20106;-76
2022/07/12 08:56:44;;;;;;;2.70;1.40;;;27.40;77.30;;;;;;5113347;28;20554;-76
2022/07/12 08:59:11;;;;;;;2.88;1.75;;;27.30;79.20;;;;;;5113583;28;20020;-76
2022/07/12 09:01:49;;;;;;;1.08;1.00;;;27.30;79.80;;;;;;5113514;28;20027;-76
2022/07/12 09:04:16;;;;;;;1.20;1.00;;;27.40;78.10;;;;;;5113253;28;20451;-76
2022/07/12 09:06:42;;;;;;;2.28;1.05;;;27.30;79.90;;;;;;5113282;28;20110;-76
2022/07/12 09:09:09;;;;;;;2.55;1.40;;;27.40;82.00;;;;;;5113185;28;20032;-76
2022/07/12 09:11:39;;;;;;;3.35;1.40;;;27.40;82.80;;;;;;5113404;28;20086;-76
2022/07/12 09:14:05;;;;;;;3.38;1.00;;;27.40;83.60;;;;;;5113187;28;20106;-76
2022/07/12 09:16:31;;;;;;;1.33;1.30;;;27.50;84.20;;;;;;5113273;28;20539;-77
2022/07/12 09:19:19;;;;;;;1.20;1.00;;;27.50;82.00;;;;;;5113310;28;20016;-76
2022/07/12 09:21:50;;;;;;;1.33;1.20;;;27.50;82.40;;;;;;5113117;28;20090;-76
2022/07/12 09:24:16;;;;;;;1.73;1.10;;;27.50;82.60;;;;;;5113282;28;20020;-76
2022/07/12 09:26:43;;;;;;;1.63;1.52;;;27.60;81.80;;;;;;5116355;28;20478;-76
2022/07/12 09:29:12;;;;;;;1.55;1.30;;;27.80;81.60;;;;;;5116727;28;20076;-76
2022/07/12 09:37:15;;;;;;;5.20;1.25;;;27.90;78.00;;;;;;5116878;28;20450;-76
2022/07/12 09:39:42;;;;;;;1.45;1.15;;;27.90;76.20;;;;;;5116739;28;20051;-76
2022/07/12 09:42:10;;;;;;;0.80;0.80;;;28.00;74.80;;;;;;5098430;28;20516;-76
2022/07/12 09:44:36;;;;;;;3.17;1.27;;;28.00;73.90;;;;;;5116666;28;20437;-76
2022/07/12 09:47:03;;;;;;;1.25;1.17;;;28.10;73.40;;;;;;5116804;28;20390;-78
2022/07/12 09:49:29;;;;;;;8.73;2.83;;;28.10;72.50;;;;;;5116510;28;20396;-75
2022/07/12 09:51:56;;;;;;;2.28;2.08;;;28.10;75.90;;;;;;5116544;28;20020;-74
2022/07/12 09:54:27;;;;;;;2.17;2.08;;;28.00;75.50;;;;;;5116719;28;20023;-76
2022/07/12 09:56:54;;;;;;;4.57;2.25;;;28.00;77.20;;;;;;5116558;28;20102;-76
2022/07/12 09:59:24;;;;;;;2.85;2.40;;;27.90;78.40;;;;;;5116400;28;20027;-76
2022/07/12 10:01:51;;;;;;;2.78;1.92;;;27.90;78.10;;;;;;5116286;28;20153;-76
2022/07/12 10:04:21;;;;;;;2.35;1.30;;;28.00;76.00;;;;;;5116320;28;20024;-75
2022/07/12 10:06:47;;;;;;;2.60;2.00;;;28.00;75.30;;;;;;5116305;28;20028;-76
2022/07/12 10:09:15;;;;;;;5.55;2.13;;;28.20;78.10;;;;;;5116043;28;20103;-75
2022/07/12 10:11:41;;;;;;;2.22;1.90;;;28.20;77.40;;;;;;5116291;28;20510;-75
2022/07/12 10:14:12;;;;;;;9.77;2.42;;;28.20;76.70;;;;;;5116171;28;20065;-76
2022/07/12 10:16:42;;;;;;;3.92;1.10;;;28.20;75.40;;;;;;5116103;28;20115;-77
2022/07/12 10:19:35;;;;;;;1.20;1.10;;;28.10;71.60;;;;;;5115882;28;20020;-77
2022/07/12 10:22:02;;;;;;;2.28;1.20;;;28.30;71.60;;;;;;5116586;28;20039;-76
2022/07/12 10:24:31;;;;;;;2.25;1.17;;;28.50;69.70;;;;;;5115897;28;20095;-77
2022/07/12 10:27:21;;;;;;;1.02;1.02;;;28.60;69.60;;;;;;5116113;28;20024;-76
2022/07/12 10:29:47;;;;;;;4.43;1.45;;;28.70;69.40;;;;;;5098075;28;20122;-77
2022/07/12 10:32:25;;;;;;;1.50;1.40;;;28.70;69.90;;;;;;5097421;28;20020;-77
2022/07/12 10:35:02;;;;;;;1.50;1.20;;;28.70;69.30;;;;;;5115780;28;20023;-78
2022/07/12 10:37:29;;;;;;;1.70;1.55;;;28.90;67.80;;;;;;5114423;28;20065;-77
2022/07/12 10:40:15;;;;;;;1.30;1.20;;;28.90;68.20;;;;;;5115772;28;20092;-78
2022/07/12 10:43:06;;;;;;;1.33;1.20;;;29.00;65.30;;;;;;5115496;28;20020;-78
2022/07/12 10:45:38;;;;;;;1.50;1.40;;;28.90;67.30;;;;;;5097195;28;20062;-77
2022/07/12 10:48:08;;;;;;;2.63;1.30;;;28.90;65.50;;;;;;5115218;28;20024;-79
2022/07/12 10:50:48;;;;;;;1.55;1.38;;;28.90;68.20;;;;;;5115547;28;20023;-77
2022/07/12 10:53:22;;;;;;;2.70;1.85;;;29.10;70.10;;;;;;5115247;28;20016;-77
2022/07/12 10:56:07;;;;;;;5.25;1.80;;;29.40;70.40;;;;;;5115417;28;20047;-78
2022/07/12 10:58:34;;;;;;;1.10;1.05;;;29.70;69.60;;;;;;5116106;28;20081;-77
2022/07/12 11:01:02;;;;;;;1.80;1.70;;;29.80;64.10;;;;;;5115468;28;20028;-77
2022/07/12 11:03:52;;;;;;;1.60;1.20;;;29.80;65.60;;;;;;5114959;28;20048;-77
2022/07/12 11:06:23;;;;;;;3.97;1.90;;;29.60;63.60;;;;;;5097306;28;20046;-77
2022/07/12 11:08:58;;;;;;;3.53;2.05;;;29.70;66.60;;;;;;5096760;28;20034;-76
2022/07/12 11:11:32;;;;;;;1.25;1.17;;;29.90;67.00;;;;;;5096954;28;20474;-77
2022/07/12 11:14:00;;;;;;;1.60;1.50;;;30.00;65.90;;;;;;5114935;28;20024;-77
2022/07/12 11:16:26;;;;;;;1.52;1.42;;;30.10;68.40;;;;;;5096704;28;20019;-77
2022/07/12 11:18:53;;;;;;;1.88;1.58;;;30.20;64.80;;;;;;5114711;28;20030;-77
2022/07/12 11:21:21;;;;;;;3.05;1.90;;;30.30;63.80;;;;;;5115002;28;20027;-76
2022/07/12 11:23:46;;;;;;;1.60;1.50;;;30.30;65.10;;;;;;5114658;28;20032;-77
2022/07/12 11:26:13;;;;;;;5.20;1.67;;;30.20;64.70;;;;;;5114689;28;20444;-78
2022/07/12 11:28:41;;;;;;;5.47;1.63;;;30.20;64.00;;;;;;5114387;28;20036;-78
2022/07/12 11:31:17;;;;;;;1.63;1.52;;;30.20;62.80;;;;;;5114706;28;20027;-76
2022/07/12 11:33:46;;;;;;;1.55;1.45;;;30.20;63.30;;;;;;5114831;28;20016;-78
2022/07/12 11:36:13;;;;;;;2.47;1.30;;;30.20;63.50;;;;;;5114458;28;20024;-77
2022/07/12 11:38:41;;;;;;;2.10;1.50;;;30.30;66.10;;;;;;5096180;28;20023;-77
2022/07/12 11:41:09;;;;;;;1.90;1.27;;;30.50;64.80;;;;;;5096303;28;20066;-77
2022/07/12 11:43:36;;;;;;;5.45;1.77;;;30.30;61.30;;;;;;5114747;28;20019;-76
2022/07/12 11:46:04;;;;;;;1.80;1.70;;;30.20;62.80;;;;;;5114380;28;20059;-76
2022/07/12 11:48:32;;;;;;;2.72;1.40;;;30.10;64.50;;;;;;5113880;28;20106;-77
2022/07/12 11:51:06;;;;;;;4.50;1.42;;;30.30;65.80;;;;;;5114284;28;20031;-76
2022/07/12 11:53:33;;;;;;;1.40;1.30;;;30.60;63.70;;;;;;5114164;28;20016;-76
2022/07/12 11:56:00;;;;;;;4.50;1.85;;;30.70;61.50;;;;;;5114134;28;20163;-77
2022/07/12 11:58:28;;;;;;;2.55;1.45;;;30.80;63.60;;;;;;5114245;28;20012;-76
2022/07/12 12:00:55;;;;;;;1.88;1.58;;;30.90;61.40;;;;;;5095997;28;20035;-76
2022/07/12 12:03:22;;;;;;;2.15;1.60;;;30.80;59.60;;;;;;5113540;28;20035;-77
2022/07/12 12:05:49;;;;;;;1.58;1.48;;;30.90;62.70;;;;;;5113506;28;20027;-77
2022/07/12 12:08:16;;;;;;;1.45;1.35;;;30.70;59.70;;;;;;5113769;28;20364;-77
2022/07/12 12:11:00;;;;;;;6.32;1.52;;;30.60;60.10;;;;;;5113911;28;20074;-77
2022/07/12 12:13:28;;;;;;;1.52;1.35;;;30.50;62.10;;;;;;5113913;28;20019;-77
2022/07/12 12:15:56;;;;;;;2.15;1.52;;;30.70;62.40;;;;;;5095152;28;20464;-78
2022/07/12 12:18:29;;;;;;;4.10;1.35;;;30.90;61.50;;;;;;5094875;28;20467;-78
2022/07/12 12:21:06;;;;;;;3.53;1.65;;;30.80;59.50;;;;;;5113191;28;20492;-77
2022/07/12 12:23:33;;;;;;;1.40;1.30;;;30.50;60.00;;;;;;5095103;28;20034;-78
2022/07/12 12:26:30;;;;;;;4.97;1.60;;;30.60;60.90;;;;;;5110385;28;20039;-77
2022/07/12 12:28:56;;;;;;;3.47;1.60;;;30.70;60.40;;;;;;5076962;28;20032;-77
2022/07/12 12:31:23;;;;;;;2.15;1.80;;;30.90;62.10;;;;;;5112795;28;20015;-77
2022/07/12 12:33:52;;;;;;;2.05;1.85;;;31.00;60.60;;;;;;5095078;28;20444;-77
2022/07/12 12:36:21;;;;;;;1.65;1.65;;;31.10;61.70;;;;;;5095185;28;20019;-77
2022/07/12 12:38:51;;;;;;;4.80;2.10;;;31.10;60.00;;;;;;5113501;28;20039;-76
2022/07/12 12:41:17;;;;;;;1.70;1.60;;;30.90;62.20;;;;;;5113500;28;20031;-77
2022/07/12 12:43:43;;;;;;;2.08;1.85;;;30.90;61.20;;;;;;5113581;28;20028;-78
2022/07/12 12:46:09;;;;;;;1.88;1.60;;;31.00;60.10;;;;;;5113646;28;20027;-77
2022/07/12 12:48:35;;;;;;;2.63;1.80;;;31.30;61.70;;;;;;5113475;28;20024;-77
2022/07/12 12:51:11;;;;;;;2.03;1.75;;;31.40;60.00;;;;;;5113496;28;20016;-77
2022/07/12 12:53:39;;;;;;;1.60;1.52;;;31.40;59.60;;;;;;5095188;28;20019;-77
2022/07/12 12:56:13;;;;;;;4.65;2.25;;;31.40;60.00;;;;;;5095191;28;20103;-76
2022/07/12 12:58:40;;;;;;;2.03;1.90;;;31.60;61.20;;;;;;5113536;28;20020;-76
2022/07/12 13:01:07;;;;;;;2.38;2.20;;;31.50;59.90;;;;;;5115794;28;20019;-77